Terminal Aerodrome Forecast
Issued by NWS Medford, OR

Home | Current Version | Previous Version | Text Only | Print | Product List | Glossary On
Versions: 1 2 3 4 5 6 7 8 9 10 11 12 13 14 15 16
000
FTUS46 KMFR 041931 AAB
TAFMFR
TAF AMD
KMFR 041931Z 0420/0518 28010G17KT P6SM -SHRA SCT035 BKN060
     FM042300 35009KT P6SM -SHRA BKN040 OVC060
     FM050400 VRB03KT P6SM SCT020 BKN035=

USA.gov is the U.S. government's official web portal to all federal, state and local government web resources and services.